Shoal Lake, Canada
Current Conditions -  °F | °C
As of 8:00 AM on Tuesday 21 Oct 2014 (Local Time) from CYBR Reporting Station
Clear Clear  
Wind Chill: 37°   Ceiling: Unl
Heat Index: 43°   Visibility: 15mi
Dew Point: 39°   Wind: 9mph
Humidity: 87%   Direction: 110°ESE
Pressure: 29.88"   Gusts: NA
Location:  50.43°N, 100.58°W
Report Text: CYBR 211300Z 11008KT 15SM SKC 06/04 A2988 RMK SLP134
Loading
Personal Weather Stations






























Interactive Weather Map
Tropical Storm Tracking
New forecast layout! Learn more

10-Day Weather Forecast

Advertisements
Track Severe Weather on mobile